Time;durP1;ratioP1;P1;durP2;ratioP2;P2;SDS_P1;SDS_P2;PMS_P1;PMS_P2;Temp;Humidity;BMP_temperature;BMP_pressure;BME280_temperature;BME280_humidity;BME280_pressure;Samples;Min_cycle;Max_cycle;Signal;HPM_P1;HPM_P2
2021/12/13 00:02:24;;;;;;;9.85;7.40;;;;;;;;;;5074614;28;20387;-33
2021/12/13 00:04:55;;;;;;;10.25;7.57;;;;;;;;;;5084991;28;20141;-31
2021/12/13 00:07:22;;;;;;;10.20;7.28;;;;;;;;;;5066872;28;20034;-32
2021/12/13 00:09:49;;;;;;;11.40;7.70;;;;;;;;;;5084942;28;20020;-31
2021/12/13 00:12:28;;;;;;;9.02;6.50;;;;;;;;;;5049699;28;20020;-33
2021/12/13 00:14:54;;;;;;;8.68;6.93;;;;;;;;;;5084010;28;20020;-30
2021/12/13 00:17:35;;;;;;;8.75;6.15;;;;;;;;;;5066464;28;20085;-29
2021/12/13 00:20:06;;;;;;;9.32;6.72;;;;;;;;;;5068821;28;20028;-33
2021/12/13 00:22:37;;;;;;;8.95;6.07;;;;;;;;;;5084722;28;20047;-30
2021/12/13 00:25:07;;;;;;;8.50;6.05;;;;;;;;;;5084357;28;20410;-33
2021/12/13 00:27:33;;;;;;;8.95;6.63;;;;;;;;;;5084034;28;20031;-32
2021/12/13 00:30:04;;;;;;;8.93;5.70;;;;;;;;;;5049136;28;20052;-35
2021/12/13 00:32:50;;;;;;;10.38;5.93;;;;;;;;;;5084600;28;20024;-33
2021/12/13 00:35:20;;;;;;;11.80;6.05;;;;;;;;;;5068081;28;20027;-34
2021/12/13 00:37:49;;;;;;;7.88;5.85;;;;;;;;;;5084779;28;20028;-31
2021/12/13 00:40:22;;;;;;;7.70;5.65;;;;;;;;;;5083900;28;20555;-30
2021/12/13 00:43:21;;;;;;;6.15;4.65;;;;;;;;;;5066257;28;20035;-30
2021/12/13 00:45:57;;;;;;;6.88;5.00;;;;;;;;;;5072875;28;20752;-31
2021/12/13 00:48:24;;;;;;;7.38;5.13;;;;;;;;;;5084465;28;20028;-31
2021/12/13 00:51:09;;;;;;;8.88;5.13;;;;;;;;;;5084194;28;20028;-31
2021/12/13 00:53:36;;;;;;;6.45;4.80;;;;;;;;;;5084298;28;20522;-29
2021/12/13 00:56:40;;;;;;;6.65;4.40;;;;;;;;;;5083866;28;20025;-31
2021/12/13 00:59:06;;;;;;;;;;;;;;;;;;5087666;28;20651;-32
2021/12/13 01:01:31;;;;;;;7.88;4.63;;;;;;;;;;5087639;28;19951;-30
2021/12/13 01:03:56;;;;;;;4.57;3.80;;;;;;;;;;5068147;28;20031;-34
2021/12/13 01:06:56;;;;;;;5.95;4.10;;;;;;;;;;5066039;28;20047;-33
2021/12/13 01:09:59;;;;;;;5.53;4.43;;;;;;;;;;5067264;28;20029;-35
2021/12/13 01:12:25;;;;;;;5.78;4.05;;;;;;;;;;5067337;28;20036;-35
2021/12/13 01:15:00;;;;;;;5.15;3.88;;;;;;;;;;5066860;28;20032;-30
2021/12/13 01:17:46;;;;;;;4.93;3.75;;;;;;;;;;5067019;28;20518;-31
2021/12/13 01:20:18;;;;;;;5.90;4.05;;;;;;;;;;5067309;28;20115;-33
2021/12/13 01:22:59;;;;;;;5.15;3.95;;;;;;;;;;5067305;28;20169;-32
2021/12/13 01:25:45;;;;;;;4.43;3.50;;;;;;;;;;5066331;28;20503;-32
2021/12/13 01:28:22;;;;;;;4.45;3.25;;;;;;;;;;5067106;28;20021;-30
2021/12/13 01:30:53;;;;;;;5.22;3.13;;;;;;;;;;5067085;28;20419;-29
2021/12/13 01:33:18;;;;;;;5.22;3.70;;;;;;;;;;5066424;28;20076;-30
2021/12/13 01:35:46;;;;;;;5.57;3.67;;;;;;;;;;5085367;28;20016;-31
2021/12/13 01:38:18;;;;;;;4.70;3.17;;;;;;;;;;5086817;28;20478;-28
2021/12/13 01:40:51;;;;;;;4.20;3.10;;;;;;;;;;5087019;28;20589;-30
2021/12/13 01:43:28;;;;;;;4.32;2.85;;;;;;;;;;5086505;28;20103;-31
2021/12/13 01:45:54;;;;;;;4.03;3.10;;;;;;;;;;5087075;28;20032;-28
2021/12/13 01:48:26;;;;;;;3.67;2.88;;;;;;;;;;5086828;28;20502;-29
2021/12/13 01:51:04;;;;;;;3.75;2.97;;;;;;;;;;5086841;28;20557;-32
2021/12/13 01:53:43;;;;;;;2.97;2.28;;;;;;;;;;5087208;28;20024;-28
2021/12/13 01:56:36;;;;;;;3.95;3.00;;;;;;;;;;5086094;28;20093;-32
2021/12/13 01:59:06;;;;;;;3.70;2.83;;;;;;;;;;5086574;28;20024;-30
2021/12/13 02:01:31;;;;;;;4.03;3.10;;;;;;;;;;5086705;28;20024;-32
2021/12/13 02:04:00;;;;;;;3.95;2.88;;;;;;;;;;5086622;28;20034;-32
2021/12/13 02:06:48;;;;;;;3.53;2.75;;;;;;;;;;5086635;28;20059;-31
2021/12/13 02:09:19;;;;;;;2.85;2.35;;;;;;;;;;5085617;28;20040;-34
2021/12/13 02:11:47;;;;;;;3.28;2.38;;;;;;;;;;5086555;28;20513;-29
2021/12/13 02:14:17;;;;;;;3.33;2.45;;;;;;;;;;5085458;28;20402;-32
2021/12/13 02:17:00;;;;;;;3.10;2.38;;;;;;;;;;5086424;28;20031;-30
2021/12/13 02:19:44;;;;;;;3.38;2.17;;;;;;;;;;5085940;28;20036;-29
2021/12/13 02:22:21;;;;;;;3.25;2.35;;;;;;;;;;5086509;28;20448;-33
2021/12/13 02:24:47;;;;;;;2.92;2.22;;;;;;;;;;5085999;28;20031;-30
2021/12/13 02:27:12;;;;;;;3.35;2.42;;;;;;;;;;5067994;28;20036;-30
2021/12/13 02:29:38;;;;;;;2.72;2.15;;;;;;;;;;5068098;28;20097;-32
2021/12/13 02:32:09;;;;;;;2.63;2.10;;;;;;;;;;5085689;28;20032;-30
2021/12/13 02:34:37;;;;;;;3.17;1.88;;;;;;;;;;5086224;28;20020;-31
2021/12/13 02:37:02;;;;;;;3.25;2.20;;;;;;;;;;5085865;28;20506;-30
2021/12/13 02:39:30;;;;;;;2.30;2.00;;;;;;;;;;5086444;28;20032;-31
2021/12/13 02:41:55;;;;;;;2.20;2.00;;;;;;;;;;5086523;28;20090;-35
2021/12/13 02:44:24;;;;;;;1.90;1.70;;;;;;;;;;5085930;28;20445;-32
2021/12/13 02:46:51;;;;;;;1.95;1.55;;;;;;;;;;5085717;28;20034;-31
2021/12/13 02:49:16;;;;;;;2.88;2.05;;;;;;;;;;5085790;28;20665;-30
2021/12/13 02:51:57;;;;;;;2.05;1.70;;;;;;;;;;5085319;28;20028;-30
2021/12/13 02:54:49;;;;;;;2.05;1.60;;;;;;;;;;5085484;28;20032;-31
2021/12/13 02:57:27;;;;;;;3.47;1.90;;;;;;;;;;5081215;28;20421;-30
2021/12/13 02:59:55;;;;;;;1.98;1.55;;;;;;;;;;5085408;28;20043;-27
2021/12/13 03:02:34;;;;;;;1.88;1.67;;;;;;;;;;5085583;28;20080;-29
2021/12/13 03:05:00;;;;;;;1.92;1.40;;;;;;;;;;5085426;28;20032;-29
2021/12/13 03:07:31;;;;;;;1.70;1.55;;;;;;;;;;5085328;28;20031;-29
2021/12/13 03:09:56;;;;;;;1.58;1.27;;;;;;;;;;5085515;28;20812;-31
2021/12/13 03:12:23;;;;;;;1.75;1.40;;;;;;;;;;5085348;28;20028;-32
2021/12/13 03:15:05;;;;;;;1.65;1.40;;;;;;;;;;5085220;28;20031;-31
2021/12/13 03:17:33;;;;;;;1.77;1.40;;;;;;;;;;5085564;28;20020;-30
2021/12/13 03:20:24;;;;;;;1.52;1.42;;;;;;;;;;5066916;28;20541;-29
2021/12/13 03:23:08;;;;;;;2.22;1.40;;;;;;;;;;5084645;28;20032;-29
2021/12/13 03:25:40;;;;;;;1.38;1.13;;;;;;;;;;5084601;28;20048;-33
2021/12/13 03:28:43;;;;;;;1.50;1.20;;;;;;;;;;5066549;28;20062;-34
2021/12/13 03:31:14;;;;;;;1.40;1.20;;;;;;;;;;5085030;28;20123;-29
2021/12/13 03:33:55;;;;;;;1.50;1.20;;;;;;;;;;5085165;28;20031;-31
2021/12/13 03:36:39;;;;;;;1.85;1.40;;;;;;;;;;5084902;28;20031;-30
2021/12/13 03:39:06;;;;;;;1.38;1.10;;;;;;;;;;5084087;28;20399;-31
2021/12/13 03:41:31;;;;;;;1.77;1.20;;;;;;;;;;5085093;28;20408;-30
2021/12/13 03:44:00;;;;;;;1.85;1.30;;;;;;;;;;5067001;28;20027;-28
2021/12/13 03:46:27;;;;;;;1.55;1.20;;;;;;;;;;5084911;28;20110;-30
2021/12/13 03:48:53;;;;;;;1.40;1.05;;;;;;;;;;5072356;28;20520;-31
2021/12/13 03:51:21;;;;;;;1.48;1.10;;;;;;;;;;5064851;28;20040;-30
2021/12/13 03:53:49;;;;;;;1.55;1.10;;;;;;;;;;5065094;28;20060;-30
2021/12/13 03:56:22;;;;;;;1.40;1.20;;;;;;;;;;5064960;28;20108;-29
2021/12/13 03:58:52;;;;;;;0.68;0.60;;;;;;;;;;5063384;28;20437;-31
2021/12/13 04:01:23;;;;;;;1.67;1.27;;;;;;;;;;5064354;28;20498;-30
2021/12/13 04:03:51;;;;;;;1.23;0.75;;;;;;;;;;5064733;28;20028;-30
2021/12/13 04:06:17;;;;;;;1.00;0.90;;;;;;;;;;5063908;28;20040;-28
2021/12/13 04:08:48;;;;;;;1.30;1.00;;;;;;;;;;5064467;28;20025;-30
2021/12/13 04:11:14;;;;;;;1.23;0.98;;;;;;;;;;5064738;28;20024;-33
2021/12/13 04:13:49;;;;;;;1.52;1.08;;;;;;;;;;5064714;28;20036;-30
2021/12/13 04:16:36;;;;;;;0.82;0.75;;;;;;;;;;5064401;28;20024;-31
2021/12/13 04:19:07;;;;;;;1.05;0.80;;;;;;;;;;5064769;28;20107;-30
2021/12/13 04:21:41;;;;;;;1.20;0.90;;;;;;;;;;5064556;28;20111;-30
2021/12/13 04:24:09;;;;;;;1.10;0.80;;;;;;;;;;5064031;28;20033;-29
2021/12/13 04:26:40;;;;;;;1.10;0.80;;;;;;;;;;5064351;28;20029;-35
2021/12/13 04:29:12;;;;;;;1.17;0.90;;;;;;;;;;5046289;28;20049;-29
2021/12/13 04:31:37;;;;;;;0.90;0.73;;;;;;;;;;5063415;28;20032;-31
2021/12/13 04:34:04;;;;;;;1.30;0.90;;;;;;;;;;5067960;28;20035;-29
2021/12/13 04:36:36;;;;;;;1.10;0.82;;;;;;;;;;5067841;28;20033;-34
2021/12/13 04:39:18;;;;;;;1.38;0.82;;;;;;;;;;5067643;28;20103;-29
2021/12/13 04:41:55;;;;;;;0.80;0.70;;;;;;;;;;5068311;28;20448;-35
2021/12/13 04:44:45;;;;;;;0.80;0.63;;;;;;;;;;5068096;28;20293;-30
2021/12/13 04:47:16;;;;;;;1.15;0.63;;;;;;;;;;5083411;28;20028;-28
2021/12/13 04:49:46;;;;;;;1.15;0.77;;;;;;;;;;5088229;28;20024;-31
2021/12/13 04:52:14;;;;;;;0.77;0.60;;;;;;;;;;5088065;28;20031;-30
2021/12/13 04:54:43;;;;;;;0.60;0.60;;;;;;;;;;5087797;28;20103;-32
2021/12/13 04:57:08;;;;;;;0.70;0.70;;;;;;;;;;5087691;28;20032;-32
2021/12/13 04:59:34;;;;;;;0.60;0.60;;;;;;;;;;5088159;28;20020;-29
2021/12/13 05:02:01;;;;;;;0.82;0.75;;;;;;;;;;5088200;28;20020;-32
2021/12/13 05:04:29;;;;;;;1.73;0.90;;;;;;;;;;5069613;28;20032;-30
2021/12/13 05:06:55;;;;;;;0.63;0.50;;;;;;;;;;5087814;28;20028;-29
2021/12/13 05:09:21;;;;;;;1.00;0.80;;;;;;;;;;5087803;28;20557;-29
2021/12/13 05:11:54;;;;;;;0.70;0.60;;;;;;;;;;5087731;28;20410;-29
2021/12/13 05:14:56;;;;;;;0.80;0.70;;;;;;;;;;5087486;28;20529;-33
2021/12/13 05:17:37;;;;;;;0.60;0.60;;;;;;;;;;5086514;28;20114;-29
2021/12/13 05:20:10;;;;;;;0.60;0.50;;;;;;;;;;5087194;28;20047;-30
2021/12/13 05:22:50;;;;;;;1.08;0.88;;;;;;;;;;5087940;28;20060;-29
2021/12/13 05:25:45;;;;;;;1.35;1.15;;;;;;;;;;5087393;28;20502;-32
2021/12/13 05:28:15;;;;;;;1.70;1.30;;;;;;;;;;5085228;28;20042;-29
2021/12/13 05:30:59;;;;;;;3.40;1.85;;;;;;;;;;5086636;28;20028;-30
2021/12/13 05:33:27;;;;;;;1.58;1.33;;;;;;;;;;5086780;28;20032;-30
2021/12/13 05:35:54;;;;;;;1.80;1.55;;;;;;;;;;5069448;28;20028;-31
2021/12/13 05:38:41;;;;;;;1.80;1.52;;;;;;;;;;5087016;28;20036;-34
2021/12/13 05:41:08;;;;;;;2.92;1.50;;;;;;;;;;5086891;28;20522;-30
2021/12/13 05:43:39;;;;;;;2.70;1.52;;;;;;;;;;5087319;28;20430;-30
2021/12/13 05:46:09;;;;;;;2.97;1.45;;;;;;;;;;5087314;28;20081;-30
2021/12/13 05:48:35;;;;;;;3.40;1.67;;;;;;;;;;5078126;28;20035;-30
2021/12/13 05:51:06;;;;;;;3.83;1.67;;;;;;;;;;5066352;28;20033;-34
2021/12/13 05:53:35;;;;;;;5.70;1.55;;;;;;;;;;5066404;28;20023;-31
2021/12/13 05:56:04;;;;;;;8.15;2.00;;;;;;;;;;5066734;28;20026;-32
2021/12/13 05:58:41;;;;;;;7.63;1.77;;;;;;;;;;5066238;28;20143;-32
2021/12/13 06:01:31;;;;;;;7.88;2.00;;;;;;;;;;5066434;28;20090;-31
2021/12/13 06:04:08;;;;;;;8.07;2.20;;;;;;;;;;5083775;28;20063;-30
2021/12/13 06:06:45;;;;;;;6.60;2.05;;;;;;;;;;5085932;28;20032;-31
2021/12/13 06:09:11;;;;;;;8.32;2.30;;;;;;;;;;5085774;28;20466;-32
2021/12/13 06:11:38;;;;;;;5.20;2.35;;;;;;;;;;5050873;28;20031;-34
2021/12/13 06:14:15;;;;;;;5.68;2.17;;;;;;;;;;5084957;28;20108;-32
2021/12/13 06:16:42;;;;;;;7.85;2.38;;;;;;;;;;5085025;28;20024;-29
2021/12/13 06:19:10;;;;;;;11.70;2.47;;;;;;;;;;5085136;28;20051;-32
2021/12/13 06:22:09;;;;;;;6.97;2.80;;;;;;;;;;5085059;28;20024;-31
2021/12/13 06:24:45;;;;;;;10.43;2.20;;;;;;;;;;5070046;28;20036;-32
2021/12/13 06:27:22;;;;;;;6.03;2.45;;;;;;;;;;5072489;28;20036;-32
2021/12/13 06:30:22;;;;;;;7.00;2.50;;;;;;;;;;5065335;28;20111;-30
2021/12/13 06:33:07;;;;;;;5.40;1.92;;;;;;;;;;5071312;28;20047;-30
2021/12/13 06:35:47;;;;;;;6.53;2.40;;;;;;;;;;5080763;28;20637;-33
2021/12/13 06:38:19;;;;;;;5.10;2.17;;;;;;;;;;5065670;28;20703;-31
2021/12/13 06:41:14;;;;;;;5.38;2.10;;;;;;;;;;5076736;28;20486;-31
2021/12/13 06:43:57;;;;;;;13.02;3.00;;;;;;;;;;5078762;28;20040;-29
2021/12/13 06:46:22;;;;;;;4.55;2.50;;;;;;;;;;5064715;28;20058;-34
2021/12/13 06:48:58;;;;;;;7.70;2.50;;;;;;;;;;5082951;28;20067;-30
2021/12/13 06:51:37;;;;;;;7.00;3.22;;;;;;;;;;5081790;28;20027;-30
2021/12/13 06:54:29;;;;;;;11.10;2.90;;;;;;;;;;5072417;28;20036;-27
2021/12/13 06:57:16;;;;;;;6.22;2.50;;;;;;;;;;5078528;28;20039;-29
2021/12/13 07:00:25;;;;;;;5.15;2.22;;;;;;;;;;5073622;28;20135;-29
2021/12/13 07:02:52;;;;;;;6.80;2.60;;;;;;;;;;5082206;28;20120;-30
2021/12/13 07:05:32;;;;;;;7.60;2.33;;;;;;;;;;5082551;28;20486;-29
2021/12/13 07:08:05;;;;;;;8.40;2.65;;;;;;;;;;5071940;28;20082;-29
2021/12/13 07:10:40;;;;;;;13.68;2.70;;;;;;;;;;5063027;28;20456;-28
2021/12/13 07:13:09;;;;;;;5.75;2.50;;;;;;;;;;5062653;28;20115;-29
2021/12/13 07:15:44;;;;;;;7.05;2.53;;;;;;;;;;5063545;28;20457;-29
2021/12/13 07:18:20;;;;;;;7.10;2.42;;;;;;;;;;5062872;28;20021;-27
2021/12/13 07:20:51;;;;;;;4.97;2.08;;;;;;;;;;5061873;28;20031;-30
2021/12/13 07:23:16;;;;;;;6.45;1.85;;;;;;;;;;5061881;28;20123;-29
2021/12/13 07:25:42;;;;;;;6.07;2.33;;;;;;;;;;5061937;28;20166;-30
2021/12/13 07:28:08;;;;;;;6.10;2.50;;;;;;;;;;5061890;28;20528;-30
2021/12/13 07:30:34;;;;;;;5.28;2.00;;;;;;;;;;5062192;28;20032;-31
2021/12/13 07:33:03;;;;;;;3.08;1.73;;;;;;;;;;5061892;28;20032;-33
2021/12/13 07:35:47;;;;;;;10.93;2.28;;;;;;;;;;5061621;28;20027;-29
2021/12/13 07:38:18;;;;;;;4.50;1.80;;;;;;;;;;5062435;28;20158;-34
2021/12/13 07:40:55;;;;;;;4.90;2.28;;;;;;;;;;5062570;28;20032;-28
2021/12/13 07:43:27;;;;;;;5.28;2.70;;;;;;;;;;5062703;28;20161;-28
2021/12/13 07:45:56;;;;;;;5.80;1.98;;;;;;;;;;5063028;28;20033;-32
2021/12/13 07:48:37;;;;;;;5.07;2.20;;;;;;;;;;5062245;28;20035;-28
2021/12/13 07:51:19;;;;;;;5.03;2.38;;;;;;;;;;5044352;28;20111;-31
2021/12/13 07:53:45;;;;;;;8.10;2.30;;;;;;;;;;5063125;28;20043;-28
2021/12/13 07:56:12;;;;;;;5.00;2.60;;;;;;;;;;5062514;28;20051;-30
2021/12/13 07:58:45;;;;;;;4.60;2.40;;;;;;;;;;5062697;28;20535;-33
2021/12/13 08:01:13;;;;;;;;;;;;;;;;;;5062462;28;20024;-31
2021/12/13 08:03:54;;;;;;;8.30;2.67;;;;;;;;;;5062696;28;20367;-30
2021/12/13 08:06:20;;;;;;;6.07;2.58;;;;;;;;;;5062443;28;20045;-33
2021/12/13 08:08:47;;;;;;;3.90;2.13;;;;;;;;;;5066144;28;20043;-31
2021/12/13 08:11:13;;;;;;;3.67;2.40;;;;;;;;;;5066916;28;20040;-31
2021/12/13 08:13:38;;;;;;;7.50;2.90;;;;;;;;;;5066306;28;20029;-29
2021/12/13 08:16:06;;;;;;;5.15;2.30;;;;;;;;;;5066848;28;20039;-34
2021/12/13 08:18:40;;;;;;;6.05;2.50;;;;;;;;;;5066134;28;20025;-29
2021/12/13 08:21:07;;;;;;;6.03;2.55;;;;;;;;;;5066359;28;20119;-34
2021/12/13 08:23:40;;;;;;;6.32;2.47;;;;;;;;;;5066076;28;20043;-30
2021/12/13 08:26:08;;;;;;;4.18;2.38;;;;;;;;;;5066335;28;20394;-30
2021/12/13 08:28:39;;;;;;;5.00;2.42;;;;;;;;;;5065838;28;20087;-32
2021/12/13 08:31:06;;;;;;;5.32;2.40;;;;;;;;;;5066042;28;20032;-33
2021/12/13 08:33:43;;;;;;;2.88;1.85;;;;;;;;;;5065912;28;20040;-32
2021/12/13 08:36:16;;;;;;;5.43;2.53;;;;;;;;;;5064783;28;20052;-30
2021/12/13 08:39:09;;;;;;;4.22;2.30;;;;;;;;;;5065824;28;20033;-31
2021/12/13 08:41:48;;;;;;;3.92;2.33;;;;;;;;;;5066033;28;20040;-32
2021/12/13 08:44:18;;;;;;;4.93;1.98;;;;;;;;;;5064079;28;20127;-34
2021/12/13 08:46:51;;;;;;;3.20;2.03;;;;;;;;;;5065668;28;20043;-33
2021/12/13 08:49:29;;;;;;;4.35;2.03;;;;;;;;;;5065643;28;20578;-31
2021/12/13 08:52:15;;;;;;;3.97;1.95;;;;;;;;;;5047352;28;20526;-31
2021/12/13 08:54:44;;;;;;;3.95;2.00;;;;;;;;;;5065763;28;20036;-29
2021/12/13 08:57:28;;;;;;;3.28;2.20;;;;;;;;;;5065426;28;20086;-32
2021/12/13 08:59:53;;;;;;;4.55;2.55;;;;;;;;;;5065700;28;20036;-32
2021/12/13 09:02:20;;;;;;;3.45;1.83;;;;;;;;;;5084560;28;20035;-32
2021/12/13 09:05:02;;;;;;;2.83;1.90;;;;;;;;;;5085408;28;20085;-30
2021/12/13 09:07:27;;;;;;;3.17;2.08;;;;;;;;;;5085675;28;20118;-28
2021/12/13 09:09:53;;;;;;;3.60;1.90;;;;;;;;;;5086202;28;20085;-34
2021/12/13 09:12:32;;;;;;;3.03;2.03;;;;;;;;;;5085275;28;20794;-30
2021/12/13 09:14:58;;;;;;;2.75;2.10;;;;;;;;;;5085443;28;20429;-33
2021/12/13 09:17:37;;;;;;;4.30;2.25;;;;;;;;;;5084725;28;20078;-28
2021/12/13 09:20:12;;;;;;;3.22;1.90;;;;;;;;;;5084705;28;20811;-31
2021/12/13 09:22:47;;;;;;;3.35;1.85;;;;;;;;;;5085095;28;20035;-31
2021/12/13 09:25:32;;;;;;;3.85;2.50;;;;;;;;;;5080079;28;20028;-32
2021/12/13 09:28:04;;;;;;;3.38;2.00;;;;;;;;;;5065004;28;20065;-31
2021/12/13 09:30:43;;;;;;;5.53;2.05;;;;;;;;;;5046673;28;20130;-29
2021/12/13 09:33:17;;;;;;;3.35;2.08;;;;;;;;;;5064776;28;20672;-30
2021/12/13 09:35:43;;;;;;;2.90;1.77;;;;;;;;;;5065251;28;20525;-32
2021/12/13 09:38:17;;;;;;;2.97;2.10;;;;;;;;;;5064970;28;20032;-31
2021/12/13 09:40:43;;;;;;;2.75;2.13;;;;;;;;;;5064927;28;20029;-28
2021/12/13 09:43:09;;;;;;;3.13;1.90;;;;;;;;;;5064883;28;20215;-33
2021/12/13 09:45:43;;;;;;;4.15;2.15;;;;;;;;;;5064227;28;20029;-27
2021/12/13 09:48:23;;;;;;;3.45;2.03;;;;;;;;;;5064960;28;20032;-33
2021/12/13 09:50:51;;;;;;;3.63;2.20;;;;;;;;;;5064432;28;20094;-29
2021/12/13 09:53:16;;;;;;;3.50;2.17;;;;;;;;;;5064826;28;20024;-29
2021/12/13 09:55:45;;;;;;;4.70;2.25;;;;;;;;;;5064565;28;20021;-29
2021/12/13 09:58:16;;;;;;;5.22;2.80;;;;;;;;;;5063032;28;20016;-31
2021/12/13 10:00:54;;;;;;;4.82;2.50;;;;;;;;;;5065094;28;20033;-29
2021/12/13 10:03:30;;;;;;;4.65;2.10;;;;;;;;;;5064051;28;20075;-30
2021/12/13 10:05:59;;;;;;;5.03;2.42;;;;;;;;;;5064376;28;20123;-30
2021/12/13 10:08:36;;;;;;;4.88;2.40;;;;;;;;;;5064144;28;20402;-30
2021/12/13 10:11:05;;;;;;;4.03;2.25;;;;;;;;;;5064143;28;20081;-29
2021/12/13 10:13:33;;;;;;;5.05;2.35;;;;;;;;;;5064256;28;20064;-29
2021/12/13 10:16:02;;;;;;;3.97;2.50;;;;;;;;;;5064073;28;20455;-32
2021/12/13 10:18:30;;;;;;;4.30;2.70;;;;;;;;;;5064048;28;20514;-28
2021/12/13 10:21:02;;;;;;;4.68;2.55;;;;;;;;;;5063283;28;20028;-32
2021/12/13 10:23:31;;;;;;;3.83;2.60;;;;;;;;;;5063365;28;20029;-32
2021/12/13 10:25:58;;;;;;;4.45;2.70;;;;;;;;;;5064421;28;20033;-31
2021/12/13 10:28:27;;;;;;;5.10;2.33;;;;;;;;;;5063485;28;20515;-34
2021/12/13 10:31:13;;;;;;;4.15;2.47;;;;;;;;;;5063004;28;20025;-32
2021/12/13 10:33:39;;;;;;;3.13;2.47;;;;;;;;;;5063754;28;20025;-30
2021/12/13 10:36:05;;;;;;;4.43;2.67;;;;;;;;;;5063709;28;20119;-32
2021/12/13 10:38:37;;;;;;;5.65;2.95;;;;;;;;;;5063364;28;20052;-35
2021/12/13 10:41:09;;;;;;;3.95;2.55;;;;;;;;;;5063553;28;20024;-29
2021/12/13 10:43:52;;;;;;;4.65;2.63;;;;;;;;;;5063297;28;20483;-31
2021/12/13 10:46:21;;;;;;;4.82;2.67;;;;;;;;;;5063404;28;20517;-29
2021/12/13 10:48:49;;;;;;;5.30;2.83;;;;;;;;;;5063883;28;20051;-32
2021/12/13 10:51:21;;;;;;;4.47;2.88;;;;;;;;;;5075553;28;20028;-29
2021/12/13 10:53:47;;;;;;;3.92;2.53;;;;;;;;;;5084019;28;20024;-32
2021/12/13 10:56:24;;;;;;;5.10;2.95;;;;;;;;;;5083929;28;20562;-31
2021/12/13 10:58:54;;;;;;;4.45;2.78;;;;;;;;;;5083098;28;20042;-33
2021/12/13 11:01:29;;;;;;;4.38;2.72;;;;;;;;;;5083098;28;20031;-31
2021/12/13 11:03:55;;;;;;;5.07;3.05;;;;;;;;;;5083715;28;20108;-35
2021/12/13 11:06:21;;;;;;;3.72;2.45;;;;;;;;;;5083107;28;20024;-31
2021/12/13 11:08:47;;;;;;;3.53;2.65;;;;;;;;;;5082987;28;20024;-33
2021/12/13 11:11:26;;;;;;;4.55;2.70;;;;;;;;;;5082807;28;20020;-29
2021/12/13 11:13:54;;;;;;;4.80;2.92;;;;;;;;;;5083640;28;20023;-30
2021/12/13 11:16:26;;;;;;;4.68;3.17;;;;;;;;;;5083193;28;20031;-31
2021/12/13 11:18:52;;;;;;;5.78;2.78;;;;;;;;;;5083066;28;20512;-34
2021/12/13 11:21:27;;;;;;;4.68;2.92;;;;;;;;;;5083177;28;20032;-29
2021/12/13 11:23:53;;;;;;;3.40;2.88;;;;;;;;;;5083240;28;20879;-30
2021/12/13 11:26:20;;;;;;;3.83;3.10;;;;;;;;;;5082882;28;20106;-36
2021/12/13 11:28:47;;;;;;;5.13;3.60;;;;;;;;;;5083343;28;20299;-31
2021/12/13 11:31:42;;;;;;;4.93;2.72;;;;;;;;;;5082893;28;20095;-32
2021/12/13 11:34:21;;;;;;;4.10;3.00;;;;;;;;;;5082734;28;20043;-32
2021/12/13 11:37:15;;;;;;;4.13;3.00;;;;;;;;;;5083007;28;20032;-34
2021/12/13 11:40:06;;;;;;;4.15;3.00;;;;;;;;;;5082972;28;20046;-31
2021/12/13 11:42:49;;;;;;;4.30;3.10;;;;;;;;;;5082381;28;20036;-30
2021/12/13 11:45:36;;;;;;;3.85;3.00;;;;;;;;;;5082435;28;20028;-29
2021/12/13 11:48:19;;;;;;;3.28;2.83;;;;;;;;;;5081980;28;20071;-35
2021/12/13 11:51:05;;;;;;;4.00;3.03;;;;;;;;;;5082694;28;20151;-31
2021/12/13 11:54:09;;;;;;;4.68;3.22;;;;;;;;;;5082775;28;20447;-32
2021/12/13 11:56:46;;;;;;;4.60;3.10;;;;;;;;;;5038756;28;20041;-30
2021/12/13 11:59:48;;;;;;;3.67;2.95;;;;;;;;;;5062680;28;20033;-32
2021/12/13 12:02:35;;;;;;;4.03;2.90;;;;;;;;;;5062897;28;20039;-32
2021/12/13 12:05:38;;;;;;;3.88;2.80;;;;;;;;;;5062276;28;20044;-31
2021/12/13 12:08:25;;;;;;;4.50;2.90;;;;;;;;;;5062860;28;20037;-30
2021/12/13 12:11:17;;;;;;;4.72;3.22;;;;;;;;;;5061904;28;20115;-32
2021/12/13 12:14:04;;;;;;;6.03;3.58;;;;;;;;;;5062857;28;20115;-31
2021/12/13 12:16:30;;;;;;;4.30;3.10;;;;;;;;;;5062139;28;20984;-32
2021/12/13 12:18:56;;;;;;;4.40;3.55;;;;;;;;;;5062427;28;20032;-31
2021/12/13 12:21:31;;;;;;;5.90;3.75;;;;;;;;;;5062012;28;20055;-33
2021/12/13 12:24:01;;;;;;;4.85;3.40;;;;;;;;;;5062283;28;20063;-29
2021/12/13 12:26:27;;;;;;;5.15;3.20;;;;;;;;;;5062551;28;20244;-30
2021/12/13 12:28:58;;;;;;;4.30;3.20;;;;;;;;;;5061828;28;20045;-32
2021/12/13 12:31:34;;;;;;;4.25;3.20;;;;;;;;;;5061711;28;20104;-32
2021/12/13 12:34:00;;;;;;;4.47;3.15;;;;;;;;;;5062305;28;20055;-31
2021/12/13 12:36:44;;;;;;;4.60;3.47;;;;;;;;;;5062229;28;20052;-28
2021/12/13 12:39:34;;;;;;;4.47;3.50;;;;;;;;;;5062102;28;20063;-30
2021/12/13 12:42:24;;;;;;;4.25;3.22;;;;;;;;;;5062500;28;20028;-31
2021/12/13 12:44:56;;;;;;;4.72;3.47;;;;;;;;;;5062134;28;20035;-34
2021/12/13 12:47:50;;;;;;;4.88;3.63;;;;;;;;;;5062512;28;20036;-29
2021/12/13 12:50:22;;;;;;;3.72;3.10;;;;;;;;;;5046480;28;20127;-29
2021/12/13 12:52:48;;;;;;;4.55;3.20;;;;;;;;;;5061896;28;20033;-32
2021/12/13 12:55:16;;;;;;;4.75;3.30;;;;;;;;;;5066673;28;20119;-30
2021/12/13 12:57:41;;;;;;;4.28;3.20;;;;;;;;;;5066455;28;20502;-31
2021/12/13 13:00:07;;;;;;;5.20;3.75;;;;;;;;;;5064275;28;20032;-29
2021/12/13 13:02:33;;;;;;;4.03;3.17;;;;;;;;;;5065917;28;20020;-31
2021/12/13 13:05:03;;;;;;;6.50;3.80;;;;;;;;;;5065235;28;20020;-29
2021/12/13 13:07:31;;;;;;;4.53;3.30;;;;;;;;;;5065542;28;20058;-33
2021/12/13 13:10:20;;;;;;;4.47;3.35;;;;;;;;;;5065438;28;20169;-29
2021/12/13 13:12:46;;;;;;;5.10;3.65;;;;;;;;;;5065244;28;20031;-30
2021/12/13 13:15:36;;;;;;;5.22;3.45;;;;;;;;;;5065240;28;20029;-33
2021/12/13 13:18:07;;;;;;;4.30;3.42;;;;;;;;;;5065943;28;20518;-33
2021/12/13 13:21:03;;;;;;;3.70;2.97;;;;;;;;;;5065176;28;20056;-30
2021/12/13 13:23:45;;;;;;;4.70;3.70;;;;;;;;;;5065533;28;20107;-30
2021/12/13 13:26:11;;;;;;;5.03;3.38;;;;;;;;;;5065581;28;20027;-31
2021/12/13 13:28:52;;;;;;;4.50;3.80;;;;;;;;;;5065383;28;20215;-29
2021/12/13 13:31:22;;;;;;;4.95;3.65;;;;;;;;;;5065367;28;20880;-30
2021/12/13 13:34:03;;;;;;;4.90;3.95;;;;;;;;;;5066017;28;20048;-31
2021/12/13 13:36:54;;;;;;;4.68;3.70;;;;;;;;;;5064751;28;20043;-28
2021/12/13 13:39:34;;;;;;;4.65;3.83;;;;;;;;;;5041086;28;20616;-28
2021/12/13 13:42:12;;;;;;;4.95;3.80;;;;;;;;;;5065067;28;20112;-30
2021/12/13 13:44:52;;;;;;;5.88;3.95;;;;;;;;;;5064884;28;20060;-32
2021/12/13 13:47:28;;;;;;;4.10;3.50;;;;;;;;;;5064580;28;20028;-30
2021/12/13 13:49:54;;;;;;;4.38;3.38;;;;;;;;;;5064714;28;20851;-32
2021/12/13 13:52:23;;;;;;;5.18;3.55;;;;;;;;;;5064200;28;20032;-30
2021/12/13 13:54:54;;;;;;;5.40;3.25;;;;;;;;;;5064803;28;20036;-29
2021/12/13 13:57:27;;;;;;;5.28;3.45;;;;;;;;;;5064477;28;20035;-33
2021/12/13 13:59:54;;;;;;;4.43;3.40;;;;;;;;;;5063875;28;20032;-29
2021/12/13 14:02:34;;;;;;;3.58;3.03;;;;;;;;;;5064907;28;20115;-32
2021/12/13 14:05:03;;;;;;;4.95;3.60;;;;;;;;;;5063020;28;20066;-35
2021/12/13 14:07:29;;;;;;;4.20;3.50;;;;;;;;;;5064296;28;20032;-31
2021/12/13 14:10:10;;;;;;;3.40;2.88;;;;;;;;;;5064568;28;20037;-31
2021/12/13 14:12:36;;;;;;;4.03;3.17;;;;;;;;;;5064913;28;20031;-29
2021/12/13 14:15:18;;;;;;;4.00;3.38;;;;;;;;;;5064892;28;20108;-29
2021/12/13 14:17:49;;;;;;;3.25;2.50;;;;;;;;;;5064690;28;20031;-28
2021/12/13 14:20:20;;;;;;;3.22;2.78;;;;;;;;;;5064355;28;20037;-34
2021/12/13 14:22:47;;;;;;;4.32;3.33;;;;;;;;;;5064218;28;20460;-31
2021/12/13 14:25:12;;;;;;;3.50;2.88;;;;;;;;;;5063981;28;20028;-33
2021/12/13 14:27:38;;;;;;;3.88;3.08;;;;;;;;;;5046164;28;20098;-29
2021/12/13 14:30:26;;;;;;;3.92;3.10;;;;;;;;;;5063973;28;20439;-28
2021/12/13 14:32:52;;;;;;;4.05;2.80;;;;;;;;;;5065466;28;20123;-32
2021/12/13 14:35:30;;;;;;;3.80;2.75;;;;;;;;;;5084061;28;20107;-33
2021/12/13 14:38:22;;;;;;;4.00;3.03;;;;;;;;;;5084898;28;20032;-30
2021/12/13 14:40:52;;;;;;;3.80;3.17;;;;;;;;;;5060969;28;20213;-30
2021/12/13 14:43:20;;;;;;;2.65;2.40;;;;;;;;;;5084102;28;20032;-34
2021/12/13 14:45:46;;;;;;;3.72;2.80;;;;;;;;;;5084338;28;20028;-29
2021/12/13 14:48:13;;;;;;;4.05;3.10;;;;;;;;;;5083722;28;20050;-33
2021/12/13 14:50:38;;;;;;;3.42;3.08;;;;;;;;;;5048669;28;21047;-31
2021/12/13 14:53:06;;;;;;;4.22;2.78;;;;;;;;;;5083767;28;20062;-37
2021/12/13 14:55:41;;;;;;;3.22;2.53;;;;;;;;;;5083722;28;20059;-29
2021/12/13 14:58:09;;;;;;;3.95;3.05;;;;;;;;;;5083356;28;20453;-32
2021/12/13 15:00:38;;;;;;;3.60;2.80;;;;;;;;;;5083324;28;20113;-32
2021/12/13 15:03:11;;;;;;;3.38;2.70;;;;;;;;;;5084003;28;20499;-29
2021/12/13 15:05:42;;;;;;;4.25;3.17;;;;;;;;;;5083727;28;20096;-32
2021/12/13 15:08:11;;;;;;;3.83;3.17;;;;;;;;;;5083357;28;20020;-31
2021/12/13 15:10:49;;;;;;;4.25;2.90;;;;;;;;;;5083339;28;20027;-30
2021/12/13 15:13:15;;;;;;;4.05;3.17;;;;;;;;;;5083889;28;20028;-30
2021/12/13 15:15:51;;;;;;;3.90;3.00;;;;;;;;;;5083407;28;20088;-33
2021/12/13 15:18:19;;;;;;;6.90;3.95;;;;;;;;;;5080780;28;20643;-32
2021/12/13 15:20:50;;;;;;;7.20;3.58;;;;;;;;;;5081084;28;20080;-30
2021/12/13 15:23:22;;;;;;;9.18;3.63;;;;;;;;;;5081567;28;20143;-35
2021/12/13 15:25:54;;;;;;;5.10;3.70;;;;;;;;;;5081035;28;20033;-29